createdAt,value
2018-07-02T00:00:19.165Z,73.40
2018-07-02T00:02:47.941Z,73.90
2018-07-02T00:05:16.906Z,74.10
2018-07-02T00:07:45.901Z,74.80
2018-07-02T00:10:14.788Z,75.00
2018-07-02T00:12:43.533Z,74.90
2018-07-02T00:15:12.233Z,75.20
2018-07-02T00:17:40.823Z,75.30
2018-07-02T00:20:09.443Z,74.60
2018-07-02T00:22:38.241Z,74.10
2018-07-02T00:25:07.191Z,73.40
2018-07-02T00:27:36.171Z,72.60
2018-07-02T00:30:05.328Z,72.10
2018-07-02T00:32:34.255Z,72.10
2018-07-02T00:35:03.141Z,72.10
2018-07-02T00:37:32.045Z,71.80
2018-07-02T00:40:01.481Z,71.90
2018-07-02T00:42:30.479Z,72.00
2018-07-02T00:44:59.366Z,72.70
2018-07-02T00:47:28.255Z,73.00
2018-07-02T00:49:57.141Z,73.10
2018-07-02T00:52:26.016Z,73.40
2018-07-02T00:54:54.646Z,72.60
2018-07-02T00:57:23.224Z,72.70
2018-07-02T00:59:51.796Z,72.80
2018-07-02T01:02:20.483Z,73.00
2018-07-02T01:04:49.385Z,73.50
2018-07-02T01:07:18.287Z,73.50
2018-07-02T01:09:47.193Z,73.80
2018-07-02T01:12:16.062Z,73.90
2018-07-02T01:14:44.925Z,73.60
2018-07-02T01:17:14.126Z,73.50
2018-07-02T01:19:43.177Z,73.80
2018-07-02T01:22:12.096Z,74.20
2018-07-02T01:24:40.840Z,74.50
2018-07-02T01:27:09.448Z,74.90
2018-07-02T01:29:38.130Z,74.80
2018-07-02T01:32:06.765Z,75.40
2018-07-02T01:34:35.640Z,75.90
2018-07-02T01:37:04.676Z,76.30
2018-07-02T01:39:35.421Z,76.20
2018-07-02T01:42:02.415Z,76.50
2018-07-02T01:44:31.386Z,76.90
2018-07-02T01:47:00.327Z,77.10
2018-07-02T01:49:29.327Z,77.50
2018-07-02T01:51:58.295Z,77.40
2018-07-02T01:54:27.167Z,78.40
2018-07-02T01:56:55.912Z,77.40
2018-07-02T01:59:24.539Z,77.20
2018-07-02T02:01:53.153Z,76.50
2018-07-02T02:04:21.795Z,76.70
2018-07-02T02:06:50.517Z,76.40
2018-07-02T02:09:19.145Z,76.20
2018-07-02T02:11:48.451Z,76.40
2018-07-02T02:14:18.018Z,76.70
2018-07-02T02:16:47.295Z,77.20
2018-07-02T02:19:16.005Z,77.10
2018-07-02T02:21:44.655Z,77.80
2018-07-02T02:24:13.370Z,78.70
2018-07-02T02:26:42.065Z,79.60
2018-07-02T02:29:10.715Z,80.70
2018-07-02T02:31:39.371Z,81.10
2018-07-02T02:34:08.268Z,81.00
2018-07-02T02:36:37.248Z,81.30
2018-07-02T02:39:08.613Z,81.00
2018-07-02T02:41:37.595Z,80.80
2018-07-02T02:44:07.588Z,80.40
2018-07-02T02:46:36.296Z,79.90
2018-07-02T02:49:05.292Z,79.60
2018-07-02T02:51:34.019Z,79.00
2018-07-02T02:54:02.652Z,79.00
2018-07-02T02:56:31.265Z,78.60
2018-07-02T02:58:59.948Z,78.50
2018-07-02T03:01:28.775Z,78.10
2018-07-02T03:03:57.373Z,78.00
2018-07-02T03:06:25.978Z,77.80
2018-07-02T03:08:54.563Z,77.70
2018-07-02T03:11:23.405Z,78.00
2018-07-02T03:13:52.468Z,78.20
2018-07-02T03:16:21.103Z,78.20
2018-07-02T03:18:49.683Z,78.60
2018-07-02T03:21:18.305Z,79.10
2018-07-02T03:23:46.940Z,79.60
2018-07-02T03:26:15.616Z,79.90
2018-07-02T03:28:44.316Z,79.80
2018-07-02T03:31:12.958Z,80.60
2018-07-02T03:33:41.808Z,80.80
2018-07-02T03:36:10.763Z,80.60
2018-07-02T03:38:39.803Z,81.20
2018-07-02T03:41:08.785Z,82.10
2018-07-02T03:43:37.766Z,82.40
2018-07-02T03:46:06.725Z,82.60
2018-07-02T03:48:35.780Z,82.50
2018-07-02T03:51:05.009Z,83.20
2018-07-02T03:53:33.815Z,83.10
2018-07-02T03:56:02.534Z,83.50
2018-07-02T03:58:31.210Z,83.80
2018-07-02T04:00:59.871Z,83.30
2018-07-02T04:03:28.770Z,82.80
2018-07-02T04:05:57.769Z,82.10
2018-07-02T04:08:26.705Z,81.50
2018-07-02T04:10:55.689Z,80.50
2018-07-02T04:13:24.708Z,80.00
2018-07-02T04:15:53.750Z,80.00
2018-07-02T04:18:22.760Z,80.10
2018-07-02T04:20:51.713Z,79.50
2018-07-02T04:23:20.530Z,78.80
2018-07-02T04:25:49.236Z,78.60
2018-07-02T04:28:17.843Z,78.10
2018-07-02T04:30:46.432Z,78.60
2018-07-02T04:33:15.021Z,78.80
2018-07-02T04:35:43.663Z,78.30
2018-07-02T04:38:12.338Z,78.10
2018-07-02T04:40:40.991Z,77.80
2018-07-02T04:43:09.786Z,77.50
2018-07-02T04:45:38.356Z,77.40
2018-07-02T04:48:06.913Z,75.60
2018-07-02T04:50:35.463Z,75.50
2018-07-02T04:53:04.020Z,75.40
2018-07-02T04:55:32.641Z,74.40
2018-07-02T04:58:01.593Z,74.30
2018-07-02T05:00:30.183Z,74.70
2018-07-02T05:02:59.173Z,74.40
2018-07-02T05:05:28.091Z,73.70
2018-07-02T05:07:56.964Z,73.10
2018-07-02T05:10:25.926Z,71.60
2018-07-02T05:12:54.622Z,71.70
2018-07-02T05:15:23.126Z,70.80
2018-07-02T05:17:51.676Z,69.80
2018-07-02T05:20:20.316Z,69.20
2018-07-02T05:22:49.146Z,68.60
2018-07-02T05:25:18.142Z,69.30
2018-07-02T05:27:47.178Z,69.30
2018-07-02T05:30:16.125Z,69.30
2018-07-02T05:32:45.067Z,68.20
2018-07-02T05:35:14.023Z,69.00
2018-07-02T05:37:42.973Z,69.50
2018-07-02T05:40:12.056Z,70.10
2018-07-02T05:42:41.000Z,70.10
2018-07-02T05:45:09.983Z,69.50
2018-07-02T05:47:38.896Z,68.50
2018-07-02T05:50:07.971Z,67.50
2018-07-02T05:52:36.908Z,67.70
2018-07-02T05:55:05.937Z,68.10
2018-07-02T05:57:34.806Z,67.70
2018-07-02T06:00:04.021Z,66.50
2018-07-02T06:02:32.663Z,65.80
2018-07-02T06:05:01.218Z,65.20
2018-07-02T06:07:29.878Z,65.40
2018-07-02T06:09:58.509Z,65.30
2018-07-02T06:12:27.373Z,65.10
2018-07-02T06:14:56.313Z,65.20
2018-07-02T06:17:25.331Z,64.10
2018-07-02T06:19:54.236Z,63.40
2018-07-02T06:22:22.902Z,62.80
2018-07-02T06:24:51.482Z,62.80
2018-07-02T06:27:20.161Z,62.10
2018-07-02T06:29:48.878Z,60.10
2018-07-02T06:32:17.483Z,59.90
2018-07-02T06:34:46.338Z,59.90
2018-07-02T06:37:15.056Z,58.70
2018-07-02T06:39:43.626Z,57.80
2018-07-02T06:42:12.339Z,58.30
2018-07-02T06:44:42.101Z,57.70
2018-07-02T06:47:11.688Z,58.70
2018-07-02T06:49:40.368Z,56.70
2018-07-02T06:52:09.253Z,55.50
2018-07-02T06:54:38.193Z,55.40
2018-07-02T06:57:07.066Z,56.20
2018-07-02T06:59:36.049Z,55.60
2018-07-02T07:02:05.051Z,55.80
2018-07-02T07:04:34.005Z,54.00
2018-07-02T07:07:02.958Z,54.10
2018-07-02T07:09:31.817Z,54.10
2018-07-02T07:12:00.833Z,51.80
2018-07-02T07:14:29.845Z,52.20
2018-07-02T07:16:58.804Z,52.90
2018-07-02T07:19:27.715Z,53.50
2018-07-02T07:21:56.621Z,52.30
2018-07-02T07:24:25.501Z,51.40
2018-07-02T07:26:54.396Z,50.30
2018-07-02T07:29:23.304Z,53.00
2018-07-02T07:31:52.271Z,51.60
2018-07-02T07:34:21.269Z,52.50
2018-07-02T07:36:50.244Z,51.60
2018-07-02T07:39:19.156Z,50.70
2018-07-02T07:41:47.905Z,50.30
2018-07-02T07:44:16.600Z,51.40
2018-07-02T07:46:45.247Z,51.10
2018-07-02T07:49:13.855Z,49.10
2018-07-02T07:51:42.707Z,49.90
2018-07-02T07:54:11.677Z,50.20
2018-07-02T07:56:40.658Z,47.70
2018-07-02T07:59:09.589Z,48.00
2018-07-02T08:01:38.363Z,46.60
2018-07-02T08:04:07.096Z,49.20
2018-07-02T08:06:35.921Z,46.60
2018-07-02T08:09:08.306Z,45.20
2018-07-02T08:11:37.001Z,45.40
2018-07-02T08:14:05.589Z,44.30
2018-07-02T08:16:34.244Z,45.30
2018-07-02T08:19:02.934Z,44.50
2018-07-02T08:21:31.553Z,45.20
2018-07-02T08:24:00.224Z,45.10
2018-07-02T08:26:28.792Z,44.90
2018-07-02T08:28:57.373Z,45.80
2018-07-02T08:31:26.161Z,44.50
2018-07-02T08:33:55.009Z,44.20
2018-07-02T08:36:23.971Z,44.40
2018-07-02T08:38:52.940Z,46.30
2018-07-02T08:43:50.641Z,42.80
2018-07-02T08:46:19.496Z,43.90
2018-07-02T08:48:48.456Z,42.60
2018-07-02T08:51:17.376Z,41.10
2018-07-02T08:53:46.538Z,39.20
2018-07-02T08:56:15.496Z,40.10
2018-07-02T08:58:44.343Z,37.10
2018-07-02T09:01:13.285Z,36.60
2018-07-02T09:03:42.208Z,37.80
2018-07-02T09:06:11.137Z,35.60
2018-07-02T09:08:40.071Z,35.60
2018-07-02T09:11:08.991Z,33.80
2018-07-02T09:13:37.908Z,33.70
2018-07-02T09:16:07.009Z,34.20
2018-07-02T09:18:36.148Z,34.20
2018-07-02T09:21:04.843Z,33.90
2018-07-02T09:23:33.523Z,35.60
2018-07-02T09:26:02.285Z,35.40
2018-07-02T09:28:30.921Z,34.00
2018-07-02T09:30:59.556Z,34.40
2018-07-02T09:33:28.133Z,32.00
2018-07-02T09:35:57.140Z,33.50
2018-07-02T09:38:26.021Z,31.30
2018-07-02T09:40:54.756Z,29.50
2018-07-02T09:43:27.932Z,28.00
2018-07-02T09:45:57.028Z,28.30
2018-07-02T09:48:25.671Z,28.80
2018-07-02T09:50:55.031Z,29.00
2018-07-02T09:53:23.575Z,28.50
2018-07-02T09:55:52.115Z,29.00
2018-07-02T09:58:20.877Z,29.00
2018-07-02T10:00:49.756Z,29.90
2018-07-02T10:03:18.693Z,29.10
2018-07-02T10:05:47.665Z,29.00
2018-07-02T10:08:16.685Z,29.60
2018-07-02T10:10:45.360Z,30.00
2018-07-02T10:13:13.940Z,27.70
2018-07-02T10:15:42.587Z,28.90
2018-07-02T10:18:11.211Z,28.50
2018-07-02T10:21:31.118Z,28.00
2018-07-02T10:24:00.211Z,28.90
2018-07-02T10:26:29.124Z,29.70
2018-07-02T10:28:58.149Z,29.70
2018-07-02T10:31:26.925Z,28.00
2018-07-02T10:33:55.397Z,26.90
2018-07-02T10:36:23.992Z,27.90
2018-07-02T10:38:52.597Z,27.90
2018-07-02T10:41:21.369Z,27.10
2018-07-02T10:43:50.309Z,28.80
2018-07-02T10:46:19.192Z,28.90
2018-07-02T10:48:48.084Z,29.60
2018-07-02T10:51:17.081Z,29.40
2018-07-02T10:53:45.750Z,29.90
2018-07-02T10:56:14.532Z,30.50
2018-07-02T10:58:43.119Z,29.70
2018-07-02T11:01:12.034Z,30.50
2018-07-02T11:03:40.801Z,32.60
2018-07-02T11:06:09.779Z,30.20
2018-07-02T11:08:38.731Z,29.30
2018-07-02T11:11:07.693Z,30.90
2018-07-02T11:13:36.379Z,30.20
2018-07-02T11:16:04.971Z,29.50
2018-07-02T11:18:33.619Z,29.60
2018-07-02T11:21:02.188Z,28.80
2018-07-02T11:23:31.097Z,28.80
2018-07-02T11:26:00.340Z,28.30
2018-07-02T11:28:36.852Z,30.00
2018-07-02T11:31:05.860Z,30.30
2018-07-02T11:33:34.877Z,28.30
2018-07-02T11:36:03.850Z,28.20
2018-07-02T11:38:33.180Z,30.00
2018-07-02T11:41:03.489Z,28.90
2018-07-02T11:43:32.424Z,29.90
2018-07-02T11:46:01.078Z,29.90
2018-07-02T11:48:30.919Z,30.00
2018-07-02T11:51:00.591Z,27.30
2018-07-02T11:53:30.915Z,27.10
2018-07-02T11:56:01.821Z,27.30
2018-07-02T11:58:30.406Z,29.30
2018-07-02T12:00:59.178Z,29.80
2018-07-02T12:03:27.826Z,29.60
2018-07-02T12:05:56.662Z,29.20
2018-07-02T12:08:25.652Z,28.80
2018-07-02T12:10:54.600Z,28.50
2018-07-02T12:13:23.623Z,28.10
2018-07-02T12:15:52.394Z,28.60
2018-07-02T12:18:20.944Z,27.40
2018-07-02T12:20:49.556Z,28.20
2018-07-02T12:23:18.201Z,28.60
2018-07-02T12:25:46.841Z,29.20
2018-07-02T12:28:15.473Z,27.70
2018-07-02T12:30:44.073Z,26.70
2018-07-02T12:33:12.704Z,26.70
2018-07-02T12:35:41.696Z,27.70
2018-07-02T12:38:10.917Z,26.70
2018-07-02T12:40:39.874Z,25.30
2018-07-02T12:43:08.819Z,26.20
2018-07-02T12:45:37.843Z,25.60
2018-07-02T12:48:06.812Z,25.80
2018-07-02T12:50:36.302Z,26.10
2018-07-02T12:53:05.809Z,26.40
2018-07-02T12:55:34.892Z,26.10
2018-07-02T13:00:32.606Z,25.30
2018-07-02T13:03:01.568Z,25.20
2018-07-02T13:05:30.664Z,25.80
2018-07-02T13:07:59.634Z,26.20
2018-07-02T13:10:28.664Z,26.60
2018-07-02T13:12:57.506Z,26.70
2018-07-02T13:15:26.119Z,27.80
2018-07-02T13:17:54.787Z,27.60
2018-07-02T13:20:23.524Z,26.80
2018-07-02T13:22:52.151Z,27.00
2018-07-02T13:25:20.809Z,26.60
2018-07-02T13:27:49.454Z,27.10
2018-07-02T13:30:18.245Z,27.90
2018-07-02T13:35:16.153Z,27.40
2018-07-02T13:37:45.205Z,28.00
2018-07-02T13:40:14.156Z,27.10
2018-07-02T13:42:43.256Z,27.50
2018-07-02T13:45:12.256Z,27.80
2018-07-02T13:47:41.244Z,27.70
2018-07-02T13:50:10.297Z,27.00
2018-07-02T13:52:39.236Z,28.60
2018-07-02T13:55:08.196Z,27.00
2018-07-02T13:57:37.179Z,28.80
2018-07-02T14:00:06.942Z,27.40
2018-07-02T14:02:35.636Z,27.30
2018-07-02T14:05:04.386Z,27.80
2018-07-02T14:07:32.977Z,29.10
2018-07-02T14:10:01.609Z,28.50
2018-07-02T14:12:30.253Z,28.70
2018-07-02T14:14:58.848Z,28.70
2018-07-02T14:17:27.555Z,28.50
2018-07-02T14:19:56.330Z,28.30
2018-07-02T14:22:25.016Z,27.50
2018-07-02T14:24:53.608Z,27.00
2018-07-02T14:27:23.121Z,27.30
2018-07-02T14:29:51.758Z,28.70
2018-07-02T14:32:20.591Z,29.20
2018-07-02T14:34:49.679Z,29.50
2018-07-02T14:37:18.739Z,28.80
2018-07-02T14:39:48.883Z,29.60
2018-07-02T14:42:17.710Z,29.40
2018-07-02T14:44:46.443Z,28.50
2018-07-02T14:47:14.976Z,28.80
2018-07-02T14:49:43.623Z,29.40
2018-07-02T14:54:41.621Z,29.80
2018-07-02T14:57:10.236Z,29.80
2018-07-02T14:59:38.853Z,29.60
2018-07-02T15:02:07.744Z,30.20
2018-07-02T15:04:36.707Z,31.40
2018-07-02T15:07:05.841Z,32.80
2018-07-02T15:09:37.399Z,33.80
2018-07-02T15:12:15.241Z,35.20
2018-07-02T15:14:44.039Z,36.30
2018-07-02T15:17:12.805Z,37.70
2018-07-02T15:19:41.509Z,38.50
2018-07-02T15:22:10.176Z,38.80
2018-07-02T15:24:38.796Z,38.70
2018-07-02T15:27:07.430Z,38.80
2018-07-02T15:29:37.184Z,39.30
2018-07-02T15:32:05.813Z,39.30
2018-07-02T15:34:34.668Z,38.70
2018-07-02T15:37:03.280Z,39.60
2018-07-02T15:39:31.911Z,40.90
2018-07-02T15:42:00.808Z,42.50
2018-07-02T15:44:29.776Z,42.30
2018-07-02T15:46:58.798Z,43.80
2018-07-02T15:49:27.784Z,43.80
2018-07-02T15:51:56.875Z,44.80
2018-07-02T15:54:25.903Z,44.40
2018-07-02T15:56:54.907Z,44.20
2018-07-02T15:59:23.832Z,44.20
2018-07-02T16:01:52.885Z,44.00
2018-07-02T16:04:21.816Z,44.00
2018-07-02T16:09:19.663Z,45.80
2018-07-02T16:11:48.825Z,46.20
2018-07-02T16:14:17.815Z,46.40
2018-07-02T16:16:46.717Z,46.80
2018-07-02T16:19:15.735Z,48.00
2018-07-02T16:21:44.741Z,47.10
2018-07-02T16:24:13.668Z,47.30
2018-07-02T16:26:42.605Z,46.40
2018-07-02T16:29:11.585Z,46.80
2018-07-02T16:31:40.503Z,48.20
2018-07-02T16:34:09.265Z,48.10
2018-07-02T16:36:37.812Z,48.70
2018-07-02T16:39:08.896Z,48.80
2018-07-02T16:41:37.754Z,49.80
2018-07-02T16:44:06.921Z,49.70
2018-07-02T16:46:35.543Z,50.40
2018-07-02T16:49:04.332Z,51.00
2018-07-02T16:51:33.295Z,51.10
2018-07-02T16:54:02.621Z,52.60
2018-07-02T16:56:31.499Z,52.60
2018-07-02T16:59:00.286Z,53.50
2018-07-02T17:01:28.968Z,53.10
2018-07-02T17:03:58.604Z,54.00
2018-07-02T17:06:27.317Z,53.80
2018-07-02T17:08:56.002Z,54.50
2018-07-02T17:11:24.760Z,54.50
2018-07-02T17:13:54.407Z,54.50
2018-07-02T17:16:24.193Z,54.40
2018-07-02T17:18:53.209Z,55.60
2018-07-02T17:21:22.196Z,56.70
2018-07-02T17:23:51.333Z,57.90
2018-07-02T17:26:20.116Z,57.60
2018-07-02T17:28:48.762Z,58.30
2018-07-02T17:31:17.370Z,58.30
2018-07-02T17:33:46.024Z,58.90
2018-07-02T17:36:14.884Z,59.10
2018-07-02T17:38:43.926Z,59.20
2018-07-02T17:41:13.543Z,59.90
2018-07-02T17:43:42.466Z,59.90
2018-07-02T17:46:11.394Z,60.20
2018-07-02T17:48:40.489Z,60.40
2018-07-02T17:51:12.084Z,60.20
2018-07-02T17:53:41.083Z,60.70
2018-07-02T17:56:11.860Z,60.80
2018-07-02T17:58:40.999Z,60.80
2018-07-02T18:01:09.764Z,61.00
2018-07-02T18:03:39.039Z,61.30
2018-07-02T18:06:07.696Z,61.50
2018-07-02T18:08:37.188Z,61.60
2018-07-02T18:11:05.934Z,62.40
2018-07-02T18:13:34.608Z,62.60
2018-07-02T18:16:03.176Z,63.10
2018-07-02T18:18:31.861Z,63.00
2018-07-02T18:21:01.512Z,64.20
2018-07-02T18:23:30.143Z,64.60
2018-07-02T18:25:59.083Z,64.90
2018-07-02T18:28:28.686Z,65.10
2018-07-02T18:30:57.857Z,65.80
2018-07-02T18:33:26.866Z,66.30
2018-07-02T18:35:55.816Z,66.80
2018-07-02T18:38:25.123Z,67.60
2018-07-02T18:40:54.263Z,68.00
2018-07-02T18:43:23.263Z,68.50
2018-07-02T18:45:52.046Z,69.00
2018-07-02T18:48:20.649Z,69.00
2018-07-02T18:50:49.312Z,68.90
2018-07-02T18:53:17.962Z,69.20
2018-07-02T18:55:46.732Z,69.40
2018-07-02T18:58:15.393Z,69.80
2018-07-02T19:00:44.638Z,69.90
2018-07-02T19:03:13.328Z,70.10
2018-07-02T19:05:41.996Z,70.40
2018-07-02T19:08:10.653Z,70.90
2018-07-02T19:10:39.381Z,71.00
2018-07-02T19:13:08.016Z,71.30
2018-07-02T19:15:36.984Z,71.20
2018-07-02T19:18:06.568Z,71.00
2018-07-02T19:20:35.878Z,71.00
2018-07-02T19:23:04.835Z,71.50
2018-07-02T19:25:33.738Z,71.70
2018-07-02T19:28:02.700Z,71.40
2018-07-02T19:30:31.783Z,71.40
2018-07-02T19:33:00.710Z,72.00
2018-07-02T19:35:29.471Z,72.20
2018-07-02T19:37:58.103Z,72.50
2018-07-02T19:40:26.660Z,72.80
2018-07-02T19:42:55.321Z,73.10
2018-07-02T19:45:23.991Z,73.30
2018-07-02T19:47:52.746Z,73.30
2018-07-02T19:50:21.354Z,73.50
2018-07-02T19:52:49.938Z,73.90
2018-07-02T19:55:18.841Z,74.20
2018-07-02T19:57:48.288Z,74.40
2018-07-02T20:00:17.305Z,74.50
2018-07-02T20:02:46.217Z,74.60
2018-07-02T20:05:14.945Z,74.60
2018-07-02T20:07:43.485Z,74.60
2018-07-02T20:10:12.158Z,74.80
2018-07-02T20:12:41.006Z,75.10
2018-07-02T20:15:10.380Z,75.10
2018-07-02T20:17:39.411Z,75.60
2018-07-02T20:20:10.643Z,75.50
2018-07-02T20:22:41.356Z,75.60
2018-07-02T20:25:10.061Z,75.40
2018-07-02T20:27:39.103Z,75.20
2018-07-02T20:30:08.955Z,75.40
2018-07-02T20:32:38.009Z,75.50
2018-07-02T20:35:06.854Z,75.60
2018-07-02T20:37:35.659Z,76.70
2018-07-02T20:40:04.886Z,75.80
2018-07-02T20:42:33.685Z,75.90
2018-07-02T20:45:02.479Z,76.40
2018-07-02T20:47:31.147Z,76.90
2018-07-02T20:49:59.816Z,77.80
2018-07-02T20:52:28.456Z,77.50
2018-07-02T20:54:57.134Z,77.80
2018-07-02T20:57:25.879Z,77.80
2018-07-02T20:59:59.800Z,78.00
2018-07-02T21:02:28.779Z,78.60
2018-07-02T21:04:57.869Z,78.80
2018-07-02T21:07:26.531Z,78.90
2018-07-02T21:09:55.910Z,78.80
2018-07-02T21:12:24.620Z,78.70
2018-07-02T21:14:53.235Z,78.80
2018-07-02T21:17:22.875Z,78.80
2018-07-02T21:19:51.494Z,78.70
2018-07-02T21:22:20.523Z,78.50
2018-07-02T21:24:49.434Z,78.60
2018-07-02T21:27:18.571Z,78.60
2018-07-02T21:29:47.492Z,78.80
2018-07-02T21:32:16.457Z,78.80
2018-07-02T21:34:45.346Z,79.00
2018-07-02T21:37:14.460Z,79.00
2018-07-02T21:39:43.484Z,79.50
2018-07-02T21:42:12.677Z,79.70
2018-07-02T21:44:42.983Z,80.20
2018-07-02T21:47:11.604Z,80.60
2018-07-02T21:49:40.194Z,80.70
2018-07-02T21:54:37.733Z,81.10
2018-07-02T21:57:06.686Z,81.00
2018-07-02T21:59:35.564Z,81.20
2018-07-02T22:02:04.753Z,81.50
2018-07-02T22:04:33.373Z,81.70
2018-07-02T22:07:02.041Z,81.50
2018-07-02T22:09:31.214Z,81.30
2018-07-02T22:12:00.072Z,81.40
2018-07-02T22:14:29.015Z,81.20
2018-07-02T22:16:58.491Z,81.20
2018-07-02T22:19:28.089Z,81.10
2018-07-02T22:21:56.994Z,81.20
2018-07-02T22:24:25.866Z,81.80
2018-07-02T22:26:54.928Z,81.60
2018-07-02T22:29:23.896Z,81.60
2018-07-02T22:31:52.831Z,81.50
2018-07-02T22:34:21.783Z,81.50
2018-07-02T22:36:50.686Z,80.20
2018-07-02T22:39:19.613Z,80.70
2018-07-02T22:41:48.526Z,81.70
2018-07-02T22:44:17.355Z,82.20
2018-07-02T22:46:46.231Z,82.90
2018-07-02T22:49:15.163Z,83.20
2018-07-02T22:51:44.244Z,83.50
2018-07-02T22:54:12.819Z,83.70
2018-07-02T22:56:41.379Z,83.90
2018-07-02T22:59:09.918Z,84.00
2018-07-02T23:01:38.612Z,84.20
2018-07-02T23:04:07.194Z,83.70
2018-07-02T23:06:35.851Z,83.70
2018-07-02T23:09:07.241Z,84.10
2018-07-02T23:11:35.825Z,84.30
2018-07-02T23:14:04.718Z,83.40
2018-07-02T23:16:33.294Z,83.30
2018-07-02T23:19:01.819Z,82.70
2018-07-02T23:21:30.335Z,83.00
2018-07-02T23:23:58.943Z,83.30
2018-07-02T23:26:27.663Z,83.90
2018-07-02T23:28:56.220Z,83.50
2018-07-02T23:31:24.736Z,83.80
2018-07-02T23:33:53.258Z,84.00
2018-07-02T23:36:21.806Z,83.60
2018-07-02T23:38:50.328Z,84.10
2018-07-02T23:41:18.843Z,84.30
2018-07-02T23:43:47.383Z,85.60
2018-07-02T23:46:16.166Z,85.00
2018-07-02T23:48:45.044Z,85.60
2018-07-02T23:51:13.908Z,85.60
2018-07-02T23:53:42.739Z,85.60
2018-07-02T23:56:11.424Z,85.90
2018-07-02T23:58:39.944Z,85.90
